sensor_id;sensor_type;location;lat;lon;timestamp;P1;durP1;ratioP1;P2;durP2;ratioP2
60464;SDS011;46314;52.392;9.758;2023-04-03T00:02:14;5.05;;;1.58;;
60464;SDS011;46314;52.392;9.758;2023-04-03T00:04:40;6.60;;;1.83;;
60464;SDS011;46314;52.392;9.758;2023-04-03T00:07:07;5.70;;;2.33;;
60464;SDS011;46314;52.392;9.758;2023-04-03T00:09:33;5.78;;;1.60;;
60464;SDS011;46314;52.392;9.758;2023-04-03T00:12:01;3.97;;;1.80;;
60464;SDS011;46314;52.392;9.758;2023-04-03T00:14:27;6.97;;;2.03;;
60464;SDS011;46314;52.392;9.758;2023-04-03T00:16:54;4.10;;;1.95;;
60464;SDS011;46314;52.392;9.758;2023-04-03T00:19:20;5.07;;;1.60;;
60464;SDS011;46314;52.392;9.758;2023-04-03T00:21:47;2.55;;;1.48;;
60464;SDS011;46314;52.392;9.758;2023-04-03T00:24:13;4.07;;;1.92;;
60464;SDS011;46314;52.392;9.758;2023-04-03T00:26:40;4.22;;;2.03;;
60464;SDS011;46314;52.392;9.758;2023-04-03T00:29:07;4.97;;;2.50;;
60464;SDS011;46314;52.392;9.758;2023-04-03T00:31:34;3.53;;;1.65;;
60464;SDS011;46314;52.392;9.758;2023-04-03T00:34:00;5.10;;;2.00;;
60464;SDS011;46314;52.392;9.758;2023-04-03T00:36:26;7.93;;;1.92;;
60464;SDS011;46314;52.392;9.758;2023-04-03T00:38:53;6.75;;;2.30;;
60464;SDS011;46314;52.392;9.758;2023-04-03T00:41:20;5.80;;;1.70;;
60464;SDS011;46314;52.392;9.758;2023-04-03T00:43:46;8.13;;;1.85;;
60464;SDS011;46314;52.392;9.758;2023-04-03T00:46:14;5.90;;;1.85;;
60464;SDS011;46314;52.392;9.758;2023-04-03T00:48:41;4.85;;;1.60;;
60464;SDS011;46314;52.392;9.758;2023-04-03T00:51:10;5.70;;;2.00;;
60464;SDS011;46314;52.392;9.758;2023-04-03T00:53:41;7.05;;;1.92;;
60464;SDS011;46314;52.392;9.758;2023-04-03T00:56:13;5.90;;;1.70;;
60464;SDS011;46314;52.392;9.758;2023-04-03T00:58:44;4.53;;;1.52;;
60464;SDS011;46314;52.392;9.758;2023-04-03T01:01:17;4.68;;;1.75;;
60464;SDS011;46314;52.392;9.758;2023-04-03T01:03:47;9.50;;;1.80;;
60464;SDS011;46314;52.392;9.758;2023-04-03T01:06:14;5.80;;;1.63;;
60464;SDS011;46314;52.392;9.758;2023-04-03T01:08:43;9.48;;;2.50;;
60464;SDS011;46314;52.392;9.758;2023-04-03T01:11:10;4.18;;;1.77;;
60464;SDS011;46314;52.392;9.758;2023-04-03T01:13:36;7.05;;;2.65;;
60464;SDS011;46314;52.392;9.758;2023-04-03T01:16:03;3.00;;;1.85;;
60464;SDS011;46314;52.392;9.758;2023-04-03T01:18:32;6.38;;;2.65;;
60464;SDS011;46314;52.392;9.758;2023-04-03T01:21:08;4.32;;;1.60;;
60464;SDS011;46314;52.392;9.758;2023-04-03T01:23:58;3.50;;;1.70;;
60464;SDS011;46314;52.392;9.758;2023-04-03T01:26:32;5.03;;;2.10;;
60464;SDS011;46314;52.392;9.758;2023-04-03T01:28:59;5.28;;;2.22;;
60464;SDS011;46314;52.392;9.758;2023-04-03T01:31:27;4.80;;;1.80;;
60464;SDS011;46314;52.392;9.758;2023-04-03T01:33:58;5.90;;;1.63;;
60464;SDS011;46314;52.392;9.758;2023-04-03T01:36:25;7.22;;;1.98;;
60464;SDS011;46314;52.392;9.758;2023-04-03T01:38:53;4.93;;;1.75;;
60464;SDS011;46314;52.392;9.758;2023-04-03T01:41:21;4.57;;;1.90;;
60464;SDS011;46314;52.392;9.758;2023-04-03T01:43:48;7.05;;;2.17;;
60464;SDS011;46314;52.392;9.758;2023-04-03T01:46:15;5.25;;;1.70;;
60464;SDS011;46314;52.392;9.758;2023-04-03T01:48:42;4.47;;;1.80;;
60464;SDS011;46314;52.392;9.758;2023-04-03T01:51:10;4.80;;;1.95;;
60464;SDS011;46314;52.392;9.758;2023-04-03T01:53:37;5.35;;;1.60;;
60464;SDS011;46314;52.392;9.758;2023-04-03T01:56:04;5.80;;;1.85;;
60464;SDS011;46314;52.392;9.758;2023-04-03T01:58:31;5.32;;;1.83;;
60464;SDS011;46314;52.392;9.758;2023-04-03T02:00:57;4.72;;;1.60;;
60464;SDS011;46314;52.392;9.758;2023-04-03T02:03:24;7.60;;;2.17;;
60464;SDS011;46314;52.392;9.758;2023-04-03T02:05:50;8.02;;;2.10;;
60464;SDS011;46314;52.392;9.758;2023-04-03T02:08:18;4.55;;;1.83;;
60464;SDS011;46314;52.392;9.758;2023-04-03T02:10:46;3.13;;;1.45;;
60464;SDS011;46314;52.392;9.758;2023-04-03T02:13:13;5.10;;;1.67;;
60464;SDS011;46314;52.392;9.758;2023-04-03T02:15:39;3.75;;;1.67;;
60464;SDS011;46314;52.392;9.758;2023-04-03T02:18:06;4.95;;;2.00;;
60464;SDS011;46314;52.392;9.758;2023-04-03T02:20:33;5.18;;;1.90;;
60464;SDS011;46314;52.392;9.758;2023-04-03T02:23:00;6.57;;;1.73;;
60464;SDS011;46314;52.392;9.758;2023-04-03T02:25:28;6.45;;;2.53;;
60464;SDS011;46314;52.392;9.758;2023-04-03T02:27:57;7.03;;;2.65;;
60464;SDS011;46314;52.392;9.758;2023-04-03T02:30:23;5.00;;;2.08;;
60464;SDS011;46314;52.392;9.758;2023-04-03T02:32:49;5.10;;;2.20;;
60464;SDS011;46314;52.392;9.758;2023-04-03T02:35:16;2.80;;;1.50;;
60464;SDS011;46314;52.392;9.758;2023-04-03T02:37:42;3.58;;;1.80;;
60464;SDS011;46314;52.392;9.758;2023-04-03T02:40:09;7.25;;;2.47;;
60464;SDS011;46314;52.392;9.758;2023-04-03T02:42:37;5.25;;;2.25;;
60464;SDS011;46314;52.392;9.758;2023-04-03T02:45:04;5.97;;;2.22;;
60464;SDS011;46314;52.392;9.758;2023-04-03T02:47:31;7.07;;;2.15;;
60464;SDS011;46314;52.392;9.758;2023-04-03T02:49:58;6.85;;;2.53;;
60464;SDS011;46314;52.392;9.758;2023-04-03T02:52:24;4.57;;;1.88;;
60464;SDS011;46314;52.392;9.758;2023-04-03T02:54:50;5.32;;;2.08;;
60464;SDS011;46314;52.392;9.758;2023-04-03T02:57:17;6.85;;;2.00;;
60464;SDS011;46314;52.392;9.758;2023-04-03T02:59:45;8.52;;;2.38;;
60464;SDS011;46314;52.392;9.758;2023-04-03T03:02:11;4.70;;;2.38;;
60464;SDS011;46314;52.392;9.758;2023-04-03T03:04:37;3.90;;;1.60;;
60464;SDS011;46314;52.392;9.758;2023-04-03T03:07:04;6.45;;;2.28;;
60464;SDS011;46314;52.392;9.758;2023-04-03T03:09:30;3.97;;;1.73;;
60464;SDS011;46314;52.392;9.758;2023-04-03T03:11:57;3.55;;;2.20;;
60464;SDS011;46314;52.392;9.758;2023-04-03T03:14:23;6.15;;;2.00;;
60464;SDS011;46314;52.392;9.758;2023-04-03T03:16:51;4.93;;;2.38;;
60464;SDS011;46314;52.392;9.758;2023-04-03T03:19:17;7.22;;;2.50;;
60464;SDS011;46314;52.392;9.758;2023-04-03T03:21:43;6.18;;;2.17;;
60464;SDS011;46314;52.392;9.758;2023-04-03T03:24:10;2.00;;;1.40;;
60464;SDS011;46314;52.392;9.758;2023-04-03T03:26:36;5.60;;;2.15;;
60464;SDS011;46314;52.392;9.758;2023-04-03T03:29:03;6.57;;;1.92;;
60464;SDS011;46314;52.392;9.758;2023-04-03T03:31:29;5.65;;;2.40;;
60464;SDS011;46314;52.392;9.758;2023-04-03T03:33:57;5.40;;;1.77;;
60464;SDS011;46314;52.392;9.758;2023-04-03T03:36:24;4.35;;;1.52;;
60464;SDS011;46314;52.392;9.758;2023-04-03T03:38:50;6.57;;;1.77;;
60464;SDS011;46314;52.392;9.758;2023-04-03T03:41:17;4.22;;;1.52;;
60464;SDS011;46314;52.392;9.758;2023-04-03T03:43:43;6.50;;;1.50;;
60464;SDS011;46314;52.392;9.758;2023-04-03T03:46:10;4.10;;;1.67;;
60464;SDS011;46314;52.392;9.758;2023-04-03T03:48:36;6.78;;;1.67;;
60464;SDS011;46314;52.392;9.758;2023-04-03T03:51:04;7.43;;;2.28;;
60464;SDS011;46314;52.392;9.758;2023-04-03T03:53:30;4.80;;;1.98;;
60464;SDS011;46314;52.392;9.758;2023-04-03T03:55:57;7.18;;;1.85;;
60464;SDS011;46314;52.392;9.758;2023-04-03T03:58:23;9.15;;;2.58;;
60464;SDS011;46314;52.392;9.758;2023-04-03T04:00:50;4.00;;;1.67;;
60464;SDS011;46314;52.392;9.758;2023-04-03T04:03:16;7.15;;;1.80;;
60464;SDS011;46314;52.392;9.758;2023-04-03T04:05:43;5.22;;;2.17;;
60464;SDS011;46314;52.392;9.758;2023-04-03T04:08:10;5.28;;;2.03;;
60464;SDS011;46314;52.392;9.758;2023-04-03T04:10:37;4.18;;;2.08;;
60464;SDS011;46314;52.392;9.758;2023-04-03T04:13:04;8.65;;;2.97;;
60464;SDS011;46314;52.392;9.758;2023-04-03T04:15:30;6.78;;;2.85;;
60464;SDS011;46314;52.392;9.758;2023-04-03T04:17:57;6.88;;;1.60;;
60464;SDS011;46314;52.392;9.758;2023-04-03T04:20:23;5.20;;;1.80;;
60464;SDS011;46314;52.392;9.758;2023-04-03T04:22:49;10.75;;;2.00;;
60464;SDS011;46314;52.392;9.758;2023-04-03T04:25:17;4.93;;;2.20;;
60464;SDS011;46314;52.392;9.758;2023-04-03T04:27:44;3.88;;;1.48;;
60464;SDS011;46314;52.392;9.758;2023-04-03T04:30:11;8.80;;;2.28;;
60464;SDS011;46314;52.392;9.758;2023-04-03T04:32:38;7.82;;;2.45;;
60464;SDS011;46314;52.392;9.758;2023-04-03T04:35:04;9.52;;;2.42;;
60464;SDS011;46314;52.392;9.758;2023-04-03T04:37:31;7.10;;;2.13;;
60464;SDS011;46314;52.392;9.758;2023-04-03T04:39:57;5.45;;;2.15;;
60464;SDS011;46314;52.392;9.758;2023-04-03T04:42:25;6.15;;;1.90;;
60464;SDS011;46314;52.392;9.758;2023-04-03T04:44:52;6.00;;;1.65;;
60464;SDS011;46314;52.392;9.758;2023-04-03T04:47:18;9.57;;;2.45;;
60464;SDS011;46314;52.392;9.758;2023-04-03T04:49:44;10.52;;;2.13;;
60464;SDS011;46314;52.392;9.758;2023-04-03T04:52:11;6.10;;;1.90;;
60464;SDS011;46314;52.392;9.758;2023-04-03T04:54:37;8.90;;;2.60;;
60464;SDS011;46314;52.392;9.758;2023-04-03T04:57:04;6.95;;;1.80;;
60464;SDS011;46314;52.392;9.758;2023-04-03T04:59:31;4.97;;;1.90;;
60464;SDS011;46314;52.392;9.758;2023-04-03T05:01:58;4.45;;;1.73;;
60464;SDS011;46314;52.392;9.758;2023-04-03T05:04:24;7.35;;;1.92;;
60464;SDS011;46314;52.392;9.758;2023-04-03T05:06:51;7.18;;;2.38;;
60464;SDS011;46314;52.392;9.758;2023-04-03T05:09:17;5.10;;;1.73;;
60464;SDS011;46314;52.392;9.758;2023-04-03T05:11:43;6.82;;;2.20;;
60464;SDS011;46314;52.392;9.758;2023-04-03T05:14:10;6.07;;;1.80;;
60464;SDS011;46314;52.392;9.758;2023-04-03T05:16:37;4.38;;;1.77;;
60464;SDS011;46314;52.392;9.758;2023-04-03T05:19:04;8.10;;;2.20;;
60464;SDS011;46314;52.392;9.758;2023-04-03T05:21:30;5.07;;;2.05;;
60464;SDS011;46314;52.392;9.758;2023-04-03T05:23:57;5.53;;;1.80;;
60464;SDS011;46314;52.392;9.758;2023-04-03T05:26:23;6.03;;;2.55;;
60464;SDS011;46314;52.392;9.758;2023-04-03T05:28:49;7.45;;;2.38;;
60464;SDS011;46314;52.392;9.758;2023-04-03T05:31:16;4.90;;;1.63;;
60464;SDS011;46314;52.392;9.758;2023-04-03T05:33:44;4.03;;;1.70;;
60464;SDS011;46314;52.392;9.758;2023-04-03T05:36:10;6.30;;;2.15;;
60464;SDS011;46314;52.392;9.758;2023-04-03T05:38:37;10.07;;;2.45;;
60464;SDS011;46314;52.392;9.758;2023-04-03T05:41:03;6.22;;;2.40;;
60464;SDS011;46314;52.392;9.758;2023-04-03T05:43:30;4.95;;;2.05;;
60464;SDS011;46314;52.392;9.758;2023-04-03T05:45:56;6.10;;;2.50;;
60464;SDS011;46314;52.392;9.758;2023-04-03T05:48:23;5.13;;;2.08;;
60464;SDS011;46314;52.392;9.758;2023-04-03T05:50:51;7.70;;;2.55;;
60464;SDS011;46314;52.392;9.758;2023-04-03T05:53:17;6.07;;;1.83;;
60464;SDS011;46314;52.392;9.758;2023-04-03T05:55:47;7.00;;;2.42;;
60464;SDS011;46314;52.392;9.758;2023-04-03T05:58:14;5.55;;;2.55;;
60464;SDS011;46314;52.392;9.758;2023-04-03T06:00:40;6.22;;;2.35;;
60464;SDS011;46314;52.392;9.758;2023-04-03T06:03:06;4.63;;;1.90;;
60464;SDS011;46314;52.392;9.758;2023-04-03T06:05:33;7.15;;;2.28;;
60464;SDS011;46314;52.392;9.758;2023-04-03T06:08:02;7.15;;;2.30;;
60464;SDS011;46314;52.392;9.758;2023-04-03T06:10:29;6.30;;;2.30;;
60464;SDS011;46314;52.392;9.758;2023-04-03T06:12:55;6.72;;;2.78;;
60464;SDS011;46314;52.392;9.758;2023-04-03T06:15:21;9.55;;;2.65;;
60464;SDS011;46314;52.392;9.758;2023-04-03T06:17:48;6.47;;;2.63;;
60464;SDS011;46314;52.392;9.758;2023-04-03T06:20:15;6.03;;;2.08;;
60464;SDS011;46314;52.392;9.758;2023-04-03T06:22:41;5.55;;;2.10;;
60464;SDS011;46314;52.392;9.758;2023-04-03T06:25:09;4.05;;;1.63;;
60464;SDS011;46314;52.392;9.758;2023-04-03T06:27:35;5.47;;;2.03;;
60464;SDS011;46314;52.392;9.758;2023-04-03T06:30:02;6.88;;;2.38;;
60464;SDS011;46314;52.392;9.758;2023-04-03T06:32:29;8.65;;;2.10;;
60464;SDS011;46314;52.392;9.758;2023-04-03T06:34:55;8.45;;;1.90;;
60464;SDS011;46314;52.392;9.758;2023-04-03T06:37:22;4.47;;;2.20;;
60464;SDS011;46314;52.392;9.758;2023-04-03T06:39:49;10.70;;;3.30;;
60464;SDS011;46314;52.392;9.758;2023-04-03T06:42:16;5.93;;;1.83;;
60464;SDS011;46314;52.392;9.758;2023-04-03T06:44:43;7.95;;;2.38;;
60464;SDS011;46314;52.392;9.758;2023-04-03T06:47:10;6.75;;;2.47;;
60464;SDS011;46314;52.392;9.758;2023-04-03T06:49:38;6.13;;;1.80;;
60464;SDS011;46314;52.392;9.758;2023-04-03T06:52:05;6.82;;;2.00;;
60464;SDS011;46314;52.392;9.758;2023-04-03T06:54:31;6.03;;;2.22;;
60464;SDS011;46314;52.392;9.758;2023-04-03T06:56:58;6.63;;;2.00;;
60464;SDS011;46314;52.392;9.758;2023-04-03T06:59:26;5.15;;;1.90;;
60464;SDS011;46314;52.392;9.758;2023-04-03T07:01:53;6.53;;;2.85;;
60464;SDS011;46314;52.392;9.758;2023-04-03T07:04:19;4.93;;;2.70;;
60464;SDS011;46314;52.392;9.758;2023-04-03T07:06:46;4.38;;;1.95;;
60464;SDS011;46314;52.392;9.758;2023-04-03T07:09:14;4.40;;;1.83;;
60464;SDS011;46314;52.392;9.758;2023-04-03T07:11:40;6.40;;;1.98;;
60464;SDS011;46314;52.392;9.758;2023-04-03T07:14:07;10.30;;;2.35;;
60464;SDS011;46314;52.392;9.758;2023-04-03T07:16:35;4.43;;;1.67;;
60464;SDS011;46314;52.392;9.758;2023-04-03T07:19:04;7.35;;;2.58;;
60464;SDS011;46314;52.392;9.758;2023-04-03T07:21:30;4.53;;;1.70;;
60464;SDS011;46314;52.392;9.758;2023-04-03T07:23:57;3.55;;;1.65;;
60464;SDS011;46314;52.392;9.758;2023-04-03T07:26:23;6.68;;;2.10;;
60464;SDS011;46314;52.392;9.758;2023-04-03T07:28:49;5.57;;;2.30;;
60464;SDS011;46314;52.392;9.758;2023-04-03T07:31:16;4.75;;;1.45;;
60464;SDS011;46314;52.392;9.758;2023-04-03T07:33:44;4.97;;;1.60;;
60464;SDS011;46314;52.392;9.758;2023-04-03T07:36:14;4.90;;;1.60;;
60464;SDS011;46314;52.392;9.758;2023-04-03T07:38:42;4.15;;;1.70;;
60464;SDS011;46314;52.392;9.758;2023-04-03T07:41:10;5.93;;;1.77;;
60464;SDS011;46314;52.392;9.758;2023-04-03T07:43:38;3.10;;;1.60;;
60464;SDS011;46314;52.392;9.758;2023-04-03T07:46:04;8.18;;;1.50;;
60464;SDS011;46314;52.392;9.758;2023-04-03T07:48:31;4.53;;;1.30;;
60464;SDS011;46314;52.392;9.758;2023-04-03T07:51:00;5.53;;;1.63;;
60464;SDS011;46314;52.392;9.758;2023-04-03T07:53:27;5.22;;;1.60;;
60464;SDS011;46314;52.392;9.758;2023-04-03T07:55:53;4.05;;;1.95;;
60464;SDS011;46314;52.392;9.758;2023-04-03T07:58:20;6.10;;;1.50;;
60464;SDS011;46314;52.392;9.758;2023-04-03T08:00:46;4.30;;;1.40;;
60464;SDS011;46314;52.392;9.758;2023-04-03T08:03:14;4.10;;;1.40;;
60464;SDS011;46314;52.392;9.758;2023-04-03T08:05:41;3.65;;;1.70;;
60464;SDS011;46314;52.392;9.758;2023-04-03T08:08:10;3.25;;;1.67;;
60464;SDS011;46314;52.392;9.758;2023-04-03T08:10:38;5.80;;;1.98;;
60464;SDS011;46314;52.392;9.758;2023-04-03T08:13:05;6.20;;;1.77;;
60464;SDS011;46314;52.392;9.758;2023-04-03T08:15:32;7.68;;;2.25;;
60464;SDS011;46314;52.392;9.758;2023-04-03T08:17:59;6.95;;;1.60;;
60464;SDS011;46314;52.392;9.758;2023-04-03T08:20:26;3.78;;;1.27;;
60464;SDS011;46314;52.392;9.758;2023-04-03T08:22:53;6.75;;;1.98;;
60464;SDS011;46314;52.392;9.758;2023-04-03T08:25:21;7.82;;;1.80;;
60464;SDS011;46314;52.392;9.758;2023-04-03T08:27:48;7.50;;;2.13;;
60464;SDS011;46314;52.392;9.758;2023-04-03T08:30:14;6.32;;;1.85;;
60464;SDS011;46314;52.392;9.758;2023-04-03T08:32:41;3.97;;;1.33;;
60464;SDS011;46314;52.392;9.758;2023-04-03T08:35:08;7.28;;;1.88;;
60464;SDS011;46314;52.392;9.758;2023-04-03T08:37:35;5.47;;;1.73;;
60464;SDS011;46314;52.392;9.758;2023-04-03T08:40:01;5.80;;;1.63;;
60464;SDS011;46314;52.392;9.758;2023-04-03T08:42:34;4.57;;;1.35;;
60464;SDS011;46314;52.392;9.758;2023-04-03T08:45:09;4.07;;;1.38;;
60464;SDS011;46314;52.392;9.758;2023-04-03T08:47:38;6.43;;;1.92;;
60464;SDS011;46314;52.392;9.758;2023-04-03T08:50:11;2.17;;;1.30;;
60464;SDS011;46314;52.392;9.758;2023-04-03T08:52:42;3.72;;;1.65;;
60464;SDS011;46314;52.392;9.758;2023-04-03T08:55:15;5.97;;;1.55;;
60464;SDS011;46314;52.392;9.758;2023-04-03T08:57:51;5.00;;;1.52;;
60464;SDS011;46314;52.392;9.758;2023-04-03T09:00:23;3.20;;;1.40;;
60464;SDS011;46314;52.392;9.758;2023-04-03T09:02:53;4.20;;;1.38;;
60464;SDS011;46314;52.392;9.758;2023-04-03T09:05:26;2.97;;;0.93;;
60464;SDS011;46314;52.392;9.758;2023-04-03T09:08:04;4.40;;;1.17;;
60464;SDS011;46314;52.392;9.758;2023-04-03T09:10:35;3.65;;;1.50;;
60464;SDS011;46314;52.392;9.758;2023-04-03T09:13:08;5.60;;;2.10;;
60464;SDS011;46314;52.392;9.758;2023-04-03T09:15:40;3.67;;;1.45;;
60464;SDS011;46314;52.392;9.758;2023-04-03T09:18:09;4.70;;;1.35;;
60464;SDS011;46314;52.392;9.758;2023-04-03T09:20:42;5.47;;;1.45;;
60464;SDS011;46314;52.392;9.758;2023-04-03T09:23:18;2.55;;;1.50;;
60464;SDS011;46314;52.392;9.758;2023-04-03T09:25:53;4.13;;;1.60;;
60464;SDS011;46314;52.392;9.758;2023-04-03T09:28:28;2.10;;;1.15;;
60464;SDS011;46314;52.392;9.758;2023-04-03T09:31:05;2.33;;;1.05;;
60464;SDS011;46314;52.392;9.758;2023-04-03T09:33:42;4.38;;;1.38;;
60464;SDS011;46314;52.392;9.758;2023-04-03T09:36:09;3.00;;;1.48;;
60464;SDS011;46314;52.392;9.758;2023-04-03T09:38:35;3.78;;;0.90;;
60464;SDS011;46314;52.392;9.758;2023-04-03T09:41:03;4.47;;;1.23;;
60464;SDS011;46314;52.392;9.758;2023-04-03T09:43:33;3.15;;;1.10;;
60464;SDS011;46314;52.392;9.758;2023-04-03T09:46:16;2.17;;;0.85;;
60464;SDS011;46314;52.392;9.758;2023-04-03T09:48:50;3.85;;;1.20;;
60464;SDS011;46314;52.392;9.758;2023-04-03T09:51:27;2.08;;;1.20;;
60464;SDS011;46314;52.392;9.758;2023-04-03T09:53:54;5.10;;;1.23;;
60464;SDS011;46314;52.392;9.758;2023-04-03T09:56:23;4.63;;;1.20;;
60464;SDS011;46314;52.392;9.758;2023-04-03T09:59:02;3.53;;;1.20;;
60464;SDS011;46314;52.392;9.758;2023-04-03T10:01:34;3.80;;;0.98;;
60464;SDS011;46314;52.392;9.758;2023-04-03T10:04:04;2.45;;;0.88;;
60464;SDS011;46314;52.392;9.758;2023-04-03T10:06:36;7.30;;;1.20;;
60464;SDS011;46314;52.392;9.758;2023-04-03T10:09:04;4.85;;;1.63;;
60464;SDS011;46314;52.392;9.758;2023-04-03T10:11:32;3.10;;;1.08;;
60464;SDS011;46314;52.392;9.758;2023-04-03T10:14:01;6.13;;;1.23;;
60464;SDS011;46314;52.392;9.758;2023-04-03T10:16:31;2.38;;;1.10;;
60464;SDS011;46314;52.392;9.758;2023-04-03T10:19:18;4.90;;;1.58;;
60464;SDS011;46314;52.392;9.758;2023-04-03T10:21:57;2.75;;;1.45;;
60464;SDS011;46314;52.392;9.758;2023-04-03T10:24:28;3.97;;;1.30;;
60464;SDS011;46314;52.392;9.758;2023-04-03T10:27:02;5.07;;;1.35;;
60464;SDS011;46314;52.392;9.758;2023-04-03T10:29:37;2.72;;;0.93;;
60464;SDS011;46314;52.392;9.758;2023-04-03T10:32:15;3.83;;;1.15;;
60464;SDS011;46314;52.392;9.758;2023-04-03T10:34:53;6.60;;;1.40;;
60464;SDS011;46314;52.392;9.758;2023-04-03T10:37:33;4.60;;;1.08;;
60464;SDS011;46314;52.392;9.758;2023-04-03T10:40:20;2.33;;;1.25;;
60464;SDS011;46314;52.392;9.758;2023-04-03T10:42:55;1.42;;;0.90;;
60464;SDS011;46314;52.392;9.758;2023-04-03T10:45:30;3.10;;;1.40;;
60464;SDS011;46314;52.392;9.758;2023-04-03T10:48:11;4.25;;;1.63;;
60464;SDS011;46314;52.392;9.758;2023-04-03T10:50:45;2.70;;;1.05;;
60464;SDS011;46314;52.392;9.758;2023-04-03T10:53:18;2.25;;;1.15;;
60464;SDS011;46314;52.392;9.758;2023-04-03T10:55:51;3.58;;;1.77;;
60464;SDS011;46314;52.392;9.758;2023-04-03T10:58:24;4.07;;;0.93;;
60464;SDS011;46314;52.392;9.758;2023-04-03T11:00:58;2.35;;;1.27;;
60464;SDS011;46314;52.392;9.758;2023-04-03T11:03:30;2.72;;;1.27;;
60464;SDS011;46314;52.392;9.758;2023-04-03T11:06:01;6.85;;;1.92;;
60464;SDS011;46314;52.392;9.758;2023-04-03T11:08:32;4.40;;;1.17;;
60464;SDS011;46314;52.392;9.758;2023-04-03T11:11:03;1.88;;;1.38;;
60464;SDS011;46314;52.392;9.758;2023-04-03T11:13:33;4.60;;;1.67;;
60464;SDS011;46314;52.392;9.758;2023-04-03T11:16:04;2.45;;;1.10;;
60464;SDS011;46314;52.392;9.758;2023-04-03T11:18:33;2.95;;;1.20;;
60464;SDS011;46314;52.392;9.758;2023-04-03T11:21:04;3.65;;;1.40;;
60464;SDS011;46314;52.392;9.758;2023-04-03T11:23:34;4.22;;;1.15;;
60464;SDS011;46314;52.392;9.758;2023-04-03T11:26:15;6.60;;;1.58;;
60464;SDS011;46314;52.392;9.758;2023-04-03T11:28:43;4.93;;;1.80;;
60464;SDS011;46314;52.392;9.758;2023-04-03T11:31:19;2.05;;;1.00;;
60464;SDS011;46314;52.392;9.758;2023-04-03T11:34:00;2.95;;;1.02;;
60464;SDS011;46314;52.392;9.758;2023-04-03T11:36:37;2.30;;;0.90;;
60464;SDS011;46314;52.392;9.758;2023-04-03T11:39:08;4.40;;;2.30;;
60464;SDS011;46314;52.392;9.758;2023-04-03T11:41:43;1.75;;;0.95;;
60464;SDS011;46314;52.392;9.758;2023-04-03T11:44:25;3.13;;;1.60;;
60464;SDS011;46314;52.392;9.758;2023-04-03T11:46:58;3.67;;;1.60;;
60464;SDS011;46314;52.392;9.758;2023-04-03T11:58:26;2.17;;;1.17;;
60464;SDS011;46314;52.392;9.758;2023-04-03T12:00:55;4.43;;;1.33;;
60464;SDS011;46314;52.392;9.758;2023-04-03T12:12:28;3.47;;;1.55;;
60464;SDS011;46314;52.392;9.758;2023-04-03T12:15:12;4.38;;;1.08;;
60464;SDS011;46314;52.392;9.758;2023-04-03T12:17:44;2.08;;;1.15;;
60464;SDS011;46314;52.392;9.758;2023-04-03T12:23:24;2.08;;;1.25;;
60464;SDS011;46314;52.392;9.758;2023-04-03T12:25:52;2.40;;;0.90;;
60464;SDS011;46314;52.392;9.758;2023-04-03T12:28:35;1.98;;;1.15;;
60464;SDS011;46314;52.392;9.758;2023-04-03T12:31:03;3.60;;;1.10;;
60464;SDS011;46314;52.392;9.758;2023-04-03T12:33:32;2.35;;;0.93;;
60464;SDS011;46314;52.392;9.758;2023-04-03T12:36:13;3.83;;;1.42;;
60464;SDS011;46314;52.392;9.758;2023-04-03T12:41:45;3.05;;;1.25;;
60464;SDS011;46314;52.392;9.758;2023-04-03T12:44:21;3.75;;;1.23;;
60464;SDS011;46314;52.392;9.758;2023-04-03T12:46:59;1.75;;;1.02;;
60464;SDS011;46314;52.392;9.758;2023-04-03T12:49:33;2.75;;;1.25;;
60464;SDS011;46314;52.392;9.758;2023-04-03T12:52:04;2.08;;;1.00;;
60464;SDS011;46314;52.392;9.758;2023-04-03T12:54:44;4.13;;;1.67;;
60464;SDS011;46314;52.392;9.758;2023-04-03T12:57:13;2.33;;;1.08;;
60464;SDS011;46314;52.392;9.758;2023-04-03T12:59:45;3.55;;;1.10;;
60464;SDS011;46314;52.392;9.758;2023-04-03T13:02:17;4.03;;;1.33;;
60464;SDS011;46314;52.392;9.758;2023-04-03T13:04:47;2.92;;;1.13;;
60464;SDS011;46314;52.392;9.758;2023-04-03T13:07:19;3.15;;;1.20;;
60464;SDS011;46314;52.392;9.758;2023-04-03T13:09:56;3.95;;;1.00;;
60464;SDS011;46314;52.392;9.758;2023-04-03T13:12:23;2.95;;;0.98;;
60464;SDS011;46314;52.392;9.758;2023-04-03T13:14:54;5.13;;;1.20;;
60464;SDS011;46314;52.392;9.758;2023-04-03T13:17:21;3.33;;;1.00;;
60464;SDS011;46314;52.392;9.758;2023-04-03T13:19:48;4.43;;;0.85;;
60464;SDS011;46314;52.392;9.758;2023-04-03T13:22:20;3.28;;;1.20;;
60464;SDS011;46314;52.392;9.758;2023-04-03T13:24:52;2.30;;;0.80;;
60464;SDS011;46314;52.392;9.758;2023-04-03T13:27:24;3.05;;;0.93;;
60464;SDS011;46314;52.392;9.758;2023-04-03T13:29:51;2.78;;;0.98;;
60464;SDS011;46314;52.392;9.758;2023-04-03T13:32:20;4.65;;;1.60;;
60464;SDS011;46314;52.392;9.758;2023-04-03T13:34:49;3.17;;;1.48;;
60464;SDS011;46314;52.392;9.758;2023-04-03T13:37:19;3.13;;;1.27;;
60464;SDS011;46314;52.392;9.758;2023-04-03T13:39:57;4.57;;;1.67;;
60464;SDS011;46314;52.392;9.758;2023-04-03T13:42:25;3.38;;;1.13;;
60464;SDS011;46314;52.392;9.758;2023-04-03T13:45:11;2.22;;;1.10;;
60464;SDS011;46314;52.392;9.758;2023-04-03T13:47:45;4.35;;;1.15;;
60464;SDS011;46314;52.392;9.758;2023-04-03T13:50:14;3.55;;;1.10;;
60464;SDS011;46314;52.392;9.758;2023-04-03T13:52:44;5.15;;;1.10;;
60464;SDS011;46314;52.392;9.758;2023-04-03T13:55:17;3.72;;;1.83;;
60464;SDS011;46314;52.392;9.758;2023-04-03T13:58:19;2.33;;;1.33;;
60464;SDS011;46314;52.392;9.758;2023-04-03T14:00:49;4.03;;;1.48;;
60464;SDS011;46314;52.392;9.758;2023-04-03T14:03:19;2.97;;;1.27;;
60464;SDS011;46314;52.392;9.758;2023-04-03T14:05:49;3.03;;;1.08;;
60464;SDS011;46314;52.392;9.758;2023-04-03T14:08:16;1.55;;;1.05;;
60464;SDS011;46314;52.392;9.758;2023-04-03T14:10:48;3.88;;;1.08;;
60464;SDS011;46314;52.392;9.758;2023-04-03T14:13:16;3.00;;;1.48;;
60464;SDS011;46314;52.392;9.758;2023-04-03T14:15:44;4.03;;;1.33;;
60464;SDS011;46314;52.392;9.758;2023-04-03T14:18:11;1.98;;;1.10;;
60464;SDS011;46314;52.392;9.758;2023-04-03T14:20:38;6.40;;;1.55;;
60464;SDS011;46314;52.392;9.758;2023-04-03T14:23:05;2.85;;;0.95;;
60464;SDS011;46314;52.392;9.758;2023-04-03T14:25:31;2.28;;;0.88;;
60464;SDS011;46314;52.392;9.758;2023-04-03T14:28:00;2.85;;;1.00;;
60464;SDS011;46314;52.392;9.758;2023-04-03T14:30:27;2.95;;;1.10;;
60464;SDS011;46314;52.392;9.758;2023-04-03T14:32:55;2.78;;;1.20;;
60464;SDS011;46314;52.392;9.758;2023-04-03T14:35:22;5.75;;;1.80;;
60464;SDS011;46314;52.392;9.758;2023-04-03T14:37:50;4.55;;;1.45;;
60464;SDS011;46314;52.392;9.758;2023-04-03T14:40:18;3.17;;;1.33;;
60464;SDS011;46314;52.392;9.758;2023-04-03T14:42:47;2.80;;;1.42;;
60464;SDS011;46314;52.392;9.758;2023-04-03T14:45:15;2.13;;;1.13;;
60464;SDS011;46314;52.392;9.758;2023-04-03T14:47:44;2.88;;;1.20;;
60464;SDS011;46314;52.392;9.758;2023-04-03T14:50:15;3.45;;;1.67;;
60464;SDS011;46314;52.392;9.758;2023-04-03T14:52:42;3.42;;;1.42;;
60464;SDS011;46314;52.392;9.758;2023-04-03T14:55:12;3.13;;;1.23;;
60464;SDS011;46314;52.392;9.758;2023-04-03T14:57:40;1.35;;;1.10;;
60464;SDS011;46314;52.392;9.758;2023-04-03T15:00:10;4.78;;;1.77;;
60464;SDS011;46314;52.392;9.758;2023-04-03T15:02:40;2.97;;;1.35;;
60464;SDS011;46314;52.392;9.758;2023-04-03T15:05:08;3.60;;;1.30;;
60464;SDS011;46314;52.392;9.758;2023-04-03T15:07:36;1.48;;;1.08;;
60464;SDS011;46314;52.392;9.758;2023-04-03T15:10:14;5.65;;;1.15;;
60464;SDS011;46314;52.392;9.758;2023-04-03T15:12:42;5.47;;;1.85;;
60464;SDS011;46314;52.392;9.758;2023-04-03T15:15:09;4.05;;;1.70;;
60464;SDS011;46314;52.392;9.758;2023-04-03T15:17:36;2.22;;;1.35;;
60464;SDS011;46314;52.392;9.758;2023-04-03T15:20:05;3.80;;;1.40;;
60464;SDS011;46314;52.392;9.758;2023-04-03T15:22:38;2.20;;;1.20;;
60464;SDS011;46314;52.392;9.758;2023-04-03T15:25:05;2.72;;;1.15;;